Terminal Aerodrome Forecast
Issued by NWS

Home | Current Version | Previous Version | Text Only | Print | Product List | Glossary On
Versions: 1 2 3 4 5 6 7 8 9 10 11 12
518
FTUS46 KSTO 261122
TAFMHR
TAF
KMHR 261122Z 2612/2712 VRB04KT P6SM FEW250
     FM262000 22011KT P6SM SCT150 BKN200
     FM270400 19008KT P6SM VCSH BKN040
      AMD NOT SKED=

USA.gov is the U.S. government's official web portal to all federal, state and local government web resources and services.